sensor_id;sensor_type;location;lat;lon;timestamp;temperature;humidity
80250;DHT22;69561;37.974;23.708;2023-09-30T00:01:01;26.60;48.70
80250;DHT22;69561;37.974;23.708;2023-09-30T00:03:27;26.60;48.70
80250;DHT22;69561;37.974;23.708;2023-09-30T00:05:54;26.60;48.70
80250;DHT22;69561;37.974;23.708;2023-09-30T00:08:19;26.60;48.70
80250;DHT22;69561;37.974;23.708;2023-09-30T00:10:45;26.60;48.70
80250;DHT22;69561;37.974;23.708;2023-09-30T00:13:12;26.60;48.70
80250;DHT22;69561;37.974;23.708;2023-09-30T00:15:38;26.60;48.70
80250;DHT22;69561;37.974;23.708;2023-09-30T00:18:04;26.60;48.70
80250;DHT22;69561;37.974;23.708;2023-09-30T00:20:31;26.60;48.70
80250;DHT22;69561;37.974;23.708;2023-09-30T00:22:57;26.60;48.70
80250;DHT22;69561;37.974;23.708;2023-09-30T00:25:23;26.60;48.70
80250;DHT22;69561;37.974;23.708;2023-09-30T00:27:49;26.60;48.70
80250;DHT22;69561;37.974;23.708;2023-09-30T00:30:15;26.60;48.70
80250;DHT22;69561;37.974;23.708;2023-09-30T00:32:41;26.60;48.70
80250;DHT22;69561;37.974;23.708;2023-09-30T00:35:07;26.60;48.70
80250;DHT22;69561;37.974;23.708;2023-09-30T00:37:37;26.60;48.70
80250;DHT22;69561;37.974;23.708;2023-09-30T00:40:04;26.60;48.70
80250;DHT22;69561;37.974;23.708;2023-09-30T00:42:30;26.60;48.80
80250;DHT22;69561;37.974;23.708;2023-09-30T00:44:56;26.60;48.70
80250;DHT22;69561;37.974;23.708;2023-09-30T00:47:23;26.60;48.70
80250;DHT22;69561;37.974;23.708;2023-09-30T00:49:52;26.60;48.70
80250;DHT22;69561;37.974;23.708;2023-09-30T00:52:19;26.60;48.70
80250;DHT22;69561;37.974;23.708;2023-09-30T00:54:46;26.60;48.70
80250;DHT22;69561;37.974;23.708;2023-09-30T00:57:13;26.60;48.70
80250;DHT22;69561;37.974;23.708;2023-09-30T00:59:40;26.50;48.60
80250;DHT22;69561;37.974;23.708;2023-09-30T01:02:06;26.60;48.70
80250;DHT22;69561;37.974;23.708;2023-09-30T01:04:32;26.60;48.70
80250;DHT22;69561;37.974;23.708;2023-09-30T01:06:58;26.60;48.70
80250;DHT22;69561;37.974;23.708;2023-09-30T01:09:24;26.60;48.70
80250;DHT22;69561;37.974;23.708;2023-09-30T01:11:51;26.60;48.80
80250;DHT22;69561;37.974;23.708;2023-09-30T01:14:31;26.60;48.70
80250;DHT22;69561;37.974;23.708;2023-09-30T01:16:57;26.60;48.70
80250;DHT22;69561;37.974;23.708;2023-09-30T01:19:24;26.60;49.60
80250;DHT22;69561;37.974;23.708;2023-09-30T01:21:57;26.60;48.80
80250;DHT22;69561;37.974;23.708;2023-09-30T01:24:26;26.60;48.80
80250;DHT22;69561;37.974;23.708;2023-09-30T01:26:52;26.60;48.80
80250;DHT22;69561;37.974;23.708;2023-09-30T01:29:19;26.50;48.80
80250;DHT22;69561;37.974;23.708;2023-09-30T01:31:44;26.60;48.90
80250;DHT22;69561;37.974;23.708;2023-09-30T01:34:14;26.60;48.80
80250;DHT22;69561;37.974;23.708;2023-09-30T01:36:43;26.60;48.80
80250;DHT22;69561;37.974;23.708;2023-09-30T01:39:10;26.60;48.80
80250;DHT22;69561;37.974;23.708;2023-09-30T01:41:37;26.60;48.90
80250;DHT22;69561;37.974;23.708;2023-09-30T01:44:04;26.60;48.90
80250;DHT22;69561;37.974;23.708;2023-09-30T01:46:30;26.60;48.80
80250;DHT22;69561;37.974;23.708;2023-09-30T01:48:55;26.50;49.80
80250;DHT22;69561;37.974;23.708;2023-09-30T01:51:21;26.50;48.80
80250;DHT22;69561;37.974;23.708;2023-09-30T01:53:50;26.60;48.90
80250;DHT22;69561;37.974;23.708;2023-09-30T01:56:16;26.60;48.90
80250;DHT22;69561;37.974;23.708;2023-09-30T01:58:42;26.60;48.80
80250;DHT22;69561;37.974;23.708;2023-09-30T02:01:08;26.60;48.90
80250;DHT22;69561;37.974;23.708;2023-09-30T02:03:34;26.60;48.80
80250;DHT22;69561;37.974;23.708;2023-09-30T02:06:00;26.60;48.90
80250;DHT22;69561;37.974;23.708;2023-09-30T02:08:26;26.60;48.80
80250;DHT22;69561;37.974;23.708;2023-09-30T02:10:51;26.50;48.80
80250;DHT22;69561;37.974;23.708;2023-09-30T02:13:18;26.60;48.90
80250;DHT22;69561;37.974;23.708;2023-09-30T02:15:43;26.60;48.80
80250;DHT22;69561;37.974;23.708;2023-09-30T02:18:10;26.60;48.90
80250;DHT22;69561;37.974;23.708;2023-09-30T02:20:36;26.50;48.70
80250;DHT22;69561;37.974;23.708;2023-09-30T02:23:09;26.60;48.90
80250;DHT22;69561;37.974;23.708;2023-09-30T02:25:39;26.60;48.90
80250;DHT22;69561;37.974;23.708;2023-09-30T02:28:05;26.60;48.90
80250;DHT22;69561;37.974;23.708;2023-09-30T02:30:31;26.60;48.90
80250;DHT22;69561;37.974;23.708;2023-09-30T02:32:57;26.60;48.90
80250;DHT22;69561;37.974;23.708;2023-09-30T02:35:23;26.60;48.90
80250;DHT22;69561;37.974;23.708;2023-09-30T02:37:50;26.60;48.90
80250;DHT22;69561;37.974;23.708;2023-09-30T02:40:17;26.60;48.90
80250;DHT22;69561;37.974;23.708;2023-09-30T02:42:43;26.60;48.90
80250;DHT22;69561;37.974;23.708;2023-09-30T02:45:11;26.60;48.90
80250;DHT22;69561;37.974;23.708;2023-09-30T02:47:38;26.60;48.90
80250;DHT22;69561;37.974;23.708;2023-09-30T02:50:06;26.60;48.90
80250;DHT22;69561;37.974;23.708;2023-09-30T02:52:34;26.60;48.90
80250;DHT22;69561;37.974;23.708;2023-09-30T02:55:00;26.60;48.90
80250;DHT22;69561;37.974;23.708;2023-09-30T02:57:26;26.60;48.90
80250;DHT22;69561;37.974;23.708;2023-09-30T02:59:55;26.60;48.90
80250;DHT22;69561;37.974;23.708;2023-09-30T03:02:22;26.60;48.90
80250;DHT22;69561;37.974;23.708;2023-09-30T03:04:48;26.60;48.90
80250;DHT22;69561;37.974;23.708;2023-09-30T03:07:15;26.60;48.90
80250;DHT22;69561;37.974;23.708;2023-09-30T03:09:41;26.60;49.00
80250;DHT22;69561;37.974;23.708;2023-09-30T03:12:07;26.60;49.00
80250;DHT22;69561;37.974;23.708;2023-09-30T03:14:34;26.60;48.90
80250;DHT22;69561;37.974;23.708;2023-09-30T03:17:00;26.60;48.90
80250;DHT22;69561;37.974;23.708;2023-09-30T03:19:26;26.50;48.90
80250;DHT22;69561;37.974;23.708;2023-09-30T03:21:52;26.60;49.00
80250;DHT22;69561;37.974;23.708;2023-09-30T03:24:18;26.60;48.90
80250;DHT22;69561;37.974;23.708;2023-09-30T03:26:44;26.60;48.90
80250;DHT22;69561;37.974;23.708;2023-09-30T03:29:10;26.60;48.90
80250;DHT22;69561;37.974;23.708;2023-09-30T03:31:36;26.60;49.00
80250;DHT22;69561;37.974;23.708;2023-09-30T03:34:05;26.60;48.90
80250;DHT22;69561;37.974;23.708;2023-09-30T03:36:31;26.60;49.00
80250;DHT22;69561;37.974;23.708;2023-09-30T03:38:57;26.60;48.90
80250;DHT22;69561;37.974;23.708;2023-09-30T03:41:30;26.60;48.90
80250;DHT22;69561;37.974;23.708;2023-09-30T03:43:57;26.60;48.90
80250;DHT22;69561;37.974;23.708;2023-09-30T03:46:22;26.60;48.90
80250;DHT22;69561;37.974;23.708;2023-09-30T03:48:48;26.60;48.90
80250;DHT22;69561;37.974;23.708;2023-09-30T03:51:15;26.50;48.80
80250;DHT22;69561;37.974;23.708;2023-09-30T03:53:42;26.60;48.90
80250;DHT22;69561;37.974;23.708;2023-09-30T03:56:08;26.60;48.90
80250;DHT22;69561;37.974;23.708;2023-09-30T03:58:38;26.60;48.90
80250;DHT22;69561;37.974;23.708;2023-09-30T04:01:04;26.60;48.90
80250;DHT22;69561;37.974;23.708;2023-09-30T04:03:30;26.60;49.00
80250;DHT22;69561;37.974;23.708;2023-09-30T04:05:59;26.60;49.00
80250;DHT22;69561;37.974;23.708;2023-09-30T04:08:24;26.60;49.00
80250;DHT22;69561;37.974;23.708;2023-09-30T04:10:50;26.60;48.90
80250;DHT22;69561;37.974;23.708;2023-09-30T04:13:16;26.60;48.90
80250;DHT22;69561;37.974;23.708;2023-09-30T04:15:45;26.60;49.00
80250;DHT22;69561;37.974;23.708;2023-09-30T04:18:12;26.60;49.00
80250;DHT22;69561;37.974;23.708;2023-09-30T04:20:38;26.60;48.90
80250;DHT22;69561;37.974;23.708;2023-09-30T04:23:06;26.60;49.00
80250;DHT22;69561;37.974;23.708;2023-09-30T04:25:32;26.60;48.90
80250;DHT22;69561;37.974;23.708;2023-09-30T04:27:58;26.60;48.90
80250;DHT22;69561;37.974;23.708;2023-09-30T04:30:24;26.60;48.90
80250;DHT22;69561;37.974;23.708;2023-09-30T04:32:50;26.60;48.90
80250;DHT22;69561;37.974;23.708;2023-09-30T04:35:16;26.60;48.90
80250;DHT22;69561;37.974;23.708;2023-09-30T04:37:43;26.60;49.00
80250;DHT22;69561;37.974;23.708;2023-09-30T04:40:09;26.50;48.90
80250;DHT22;69561;37.974;23.708;2023-09-30T04:42:44;26.60;49.00
80250;DHT22;69561;37.974;23.708;2023-09-30T04:45:11;26.60;48.90
80250;DHT22;69561;37.974;23.708;2023-09-30T04:47:37;26.60;48.90
80250;DHT22;69561;37.974;23.708;2023-09-30T04:50:07;26.60;49.00
80250;DHT22;69561;37.974;23.708;2023-09-30T04:52:37;26.60;49.00
80250;DHT22;69561;37.974;23.708;2023-09-30T04:55:04;26.60;48.90
80250;DHT22;69561;37.974;23.708;2023-09-30T04:57:30;26.60;48.90
80250;DHT22;69561;37.974;23.708;2023-09-30T04:59:58;26.60;48.90
80250;DHT22;69561;37.974;23.708;2023-09-30T05:02:27;26.60;48.90
80250;DHT22;69561;37.974;23.708;2023-09-30T05:04:53;26.60;48.90
80250;DHT22;69561;37.974;23.708;2023-09-30T05:07:20;26.60;48.90
80250;DHT22;69561;37.974;23.708;2023-09-30T05:09:49;26.60;48.90
80250;DHT22;69561;37.974;23.708;2023-09-30T05:12:14;26.60;48.90
80250;DHT22;69561;37.974;23.708;2023-09-30T05:14:41;26.60;48.90
80250;DHT22;69561;37.974;23.708;2023-09-30T05:17:08;26.60;48.90
80250;DHT22;69561;37.974;23.708;2023-09-30T05:19:34;26.60;48.90
80250;DHT22;69561;37.974;23.708;2023-09-30T05:22:00;26.60;48.90
80250;DHT22;69561;37.974;23.708;2023-09-30T05:24:27;26.60;48.90
80250;DHT22;69561;37.974;23.708;2023-09-30T05:26:53;26.60;48.80
80250;DHT22;69561;37.974;23.708;2023-09-30T05:29:19;26.60;48.80
80250;DHT22;69561;37.974;23.708;2023-09-30T05:31:46;26.60;48.80
80250;DHT22;69561;37.974;23.708;2023-09-30T05:34:12;26.60;48.80
80250;DHT22;69561;37.974;23.708;2023-09-30T05:36:38;26.60;48.90
80250;DHT22;69561;37.974;23.708;2023-09-30T05:39:04;26.60;48.70
80250;DHT22;69561;37.974;23.708;2023-09-30T05:41:31;26.60;48.70
80250;DHT22;69561;37.974;23.708;2023-09-30T05:43:57;26.60;48.70
80250;DHT22;69561;37.974;23.708;2023-09-30T05:46:24;26.60;48.90
80250;DHT22;69561;37.974;23.708;2023-09-30T05:48:50;26.60;48.80
80250;DHT22;69561;37.974;23.708;2023-09-30T05:51:16;26.60;48.70
80250;DHT22;69561;37.974;23.708;2023-09-30T05:53:42;26.60;48.70
80250;DHT22;69561;37.974;23.708;2023-09-30T05:56:08;26.60;48.70
80250;DHT22;69561;37.974;23.708;2023-09-30T05:58:36;26.60;48.70
80250;DHT22;69561;37.974;23.708;2023-09-30T06:01:08;26.60;48.70
80250;DHT22;69561;37.974;23.708;2023-09-30T06:03:36;26.60;48.70
80250;DHT22;69561;37.974;23.708;2023-09-30T06:06:11;26.60;48.70
80250;DHT22;69561;37.974;23.708;2023-09-30T06:08:38;26.60;48.80
80250;DHT22;69561;37.974;23.708;2023-09-30T06:11:04;26.60;48.80
80250;DHT22;69561;37.974;23.708;2023-09-30T06:13:29;26.60;48.80
80250;DHT22;69561;37.974;23.708;2023-09-30T06:15:58;26.60;48.70
80250;DHT22;69561;37.974;23.708;2023-09-30T06:18:24;26.60;48.70
80250;DHT22;69561;37.974;23.708;2023-09-30T06:20:49;26.70;48.80
80250;DHT22;69561;37.974;23.708;2023-09-30T06:23:16;26.70;48.80
80250;DHT22;69561;37.974;23.708;2023-09-30T06:25:42;26.70;48.80
80250;DHT22;69561;37.974;23.708;2023-09-30T06:28:08;26.70;48.80
80250;DHT22;69561;37.974;23.708;2023-09-30T06:30:35;26.60;48.70
80250;DHT22;69561;37.974;23.708;2023-09-30T06:33:01;26.70;48.80
80250;DHT22;69561;37.974;23.708;2023-09-30T06:35:30;26.70;48.70
80250;DHT22;69561;37.974;23.708;2023-09-30T06:37:59;26.70;48.70
80250;DHT22;69561;37.974;23.708;2023-09-30T06:40:26;26.70;48.70
80250;DHT22;69561;37.974;23.708;2023-09-30T06:42:53;26.70;48.80
80250;DHT22;69561;37.974;23.708;2023-09-30T06:45:19;26.70;48.70
80250;DHT22;69561;37.974;23.708;2023-09-30T06:47:47;26.70;48.70
80250;DHT22;69561;37.974;23.708;2023-09-30T06:50:13;26.70;48.70
80250;DHT22;69561;37.974;23.708;2023-09-30T06:52:43;26.70;48.80
80250;DHT22;69561;37.974;23.708;2023-09-30T06:55:14;26.70;48.70
80250;DHT22;69561;37.974;23.708;2023-09-30T06:57:42;26.70;48.80
80250;DHT22;69561;37.974;23.708;2023-09-30T07:00:09;26.80;48.80
80250;DHT22;69561;37.974;23.708;2023-09-30T07:02:35;26.80;48.80
80250;DHT22;69561;37.974;23.708;2023-09-30T07:05:09;26.70;48.70
80250;DHT22;69561;37.974;23.708;2023-09-30T07:07:35;26.80;48.80
80250;DHT22;69561;37.974;23.708;2023-09-30T07:10:01;26.80;48.70
80250;DHT22;69561;37.974;23.708;2023-09-30T07:12:27;26.80;48.60
80250;DHT22;69561;37.974;23.708;2023-09-30T07:14:53;26.80;48.70
80250;DHT22;69561;37.974;23.708;2023-09-30T07:17:19;26.80;48.60
80250;DHT22;69561;37.974;23.708;2023-09-30T07:19:45;26.80;48.60
80250;DHT22;69561;37.974;23.708;2023-09-30T07:22:10;26.90;48.70
80250;DHT22;69561;37.974;23.708;2023-09-30T07:24:36;26.80;48.60
80250;DHT22;69561;37.974;23.708;2023-09-30T07:27:04;26.80;48.50
80250;DHT22;69561;37.974;23.708;2023-09-30T07:29:30;26.90;48.60
80250;DHT22;69561;37.974;23.708;2023-09-30T07:31:56;26.90;48.60
80250;DHT22;69561;37.974;23.708;2023-09-30T07:34:22;26.90;48.50
80250;DHT22;69561;37.974;23.708;2023-09-30T07:36:47;26.90;48.60
80250;DHT22;69561;37.974;23.708;2023-09-30T07:39:13;26.90;48.50
80250;DHT22;69561;37.974;23.708;2023-09-30T07:41:39;26.90;48.50
80250;DHT22;69561;37.974;23.708;2023-09-30T07:44:05;26.90;48.50
80250;DHT22;69561;37.974;23.708;2023-09-30T07:46:31;26.90;48.50
80250;DHT22;69561;37.974;23.708;2023-09-30T07:48:57;26.90;48.50
80250;DHT22;69561;37.974;23.708;2023-09-30T07:51:24;26.90;48.50
80250;DHT22;69561;37.974;23.708;2023-09-30T07:53:50;26.90;48.50
80250;DHT22;69561;37.974;23.708;2023-09-30T07:56:17;26.90;48.50
80250;DHT22;69561;37.974;23.708;2023-09-30T07:58:42;26.90;48.50
80250;DHT22;69561;37.974;23.708;2023-09-30T08:01:08;26.90;48.50
80250;DHT22;69561;37.974;23.708;2023-09-30T08:03:34;26.90;48.50
80250;DHT22;69561;37.974;23.708;2023-09-30T08:06:02;26.90;48.50
80250;DHT22;69561;37.974;23.708;2023-09-30T08:08:28;26.90;48.50
80250;DHT22;69561;37.974;23.708;2023-09-30T08:10:55;27.00;48.50
80250;DHT22;69561;37.974;23.708;2023-09-30T08:13:24;26.90;48.40
80250;DHT22;69561;37.974;23.708;2023-09-30T08:15:51;27.00;48.50
80250;DHT22;69561;37.974;23.708;2023-09-30T08:18:18;27.00;48.50
80250;DHT22;69561;37.974;23.708;2023-09-30T08:20:44;26.90;48.40
80250;DHT22;69561;37.974;23.708;2023-09-30T08:23:10;27.00;48.50
80250;DHT22;69561;37.974;23.708;2023-09-30T08:25:37;27.00;48.50
80250;DHT22;69561;37.974;23.708;2023-09-30T08:28:04;27.00;48.40
80250;DHT22;69561;37.974;23.708;2023-09-30T08:30:30;27.00;48.40
80250;DHT22;69561;37.974;23.708;2023-09-30T08:32:56;27.00;48.40
80250;DHT22;69561;37.974;23.708;2023-09-30T08:35:22;27.00;48.40
80250;DHT22;69561;37.974;23.708;2023-09-30T08:37:47;27.00;48.50
80250;DHT22;69561;37.974;23.708;2023-09-30T08:40:13;27.00;48.40
80250;DHT22;69561;37.974;23.708;2023-09-30T08:42:39;27.00;48.40
80250;DHT22;69561;37.974;23.708;2023-09-30T08:45:10;27.00;48.40
80250;DHT22;69561;37.974;23.708;2023-09-30T08:47:38;27.00;48.40
80250;DHT22;69561;37.974;23.708;2023-09-30T08:50:06;27.00;48.40
80250;DHT22;69561;37.974;23.708;2023-09-30T08:52:34;27.00;48.40
80250;DHT22;69561;37.974;23.708;2023-09-30T08:55:01;27.00;48.40
80250;DHT22;69561;37.974;23.708;2023-09-30T08:57:28;27.00;48.40
80250;DHT22;69561;37.974;23.708;2023-09-30T08:59:55;27.00;48.50
80250;DHT22;69561;37.974;23.708;2023-09-30T09:02:20;27.00;48.40
80250;DHT22;69561;37.974;23.708;2023-09-30T09:04:46;27.00;48.40
80250;DHT22;69561;37.974;23.708;2023-09-30T09:07:12;27.00;48.40
80250;DHT22;69561;37.974;23.708;2023-09-30T09:09:38;27.00;48.40
80250;DHT22;69561;37.974;23.708;2023-09-30T09:12:04;27.00;48.40
80250;DHT22;69561;37.974;23.708;2023-09-30T09:14:40;27.00;48.40
80250;DHT22;69561;37.974;23.708;2023-09-30T09:17:08;27.00;48.40
80250;DHT22;69561;37.974;23.708;2023-09-30T09:19:34;27.00;48.40
80250;DHT22;69561;37.974;23.708;2023-09-30T09:22:02;27.00;48.40
80250;DHT22;69561;37.974;23.708;2023-09-30T09:24:34;27.00;48.40
80250;DHT22;69561;37.974;23.708;2023-09-30T09:27:04;27.00;48.40
80250;DHT22;69561;37.974;23.708;2023-09-30T09:29:32;27.00;48.40
80250;DHT22;69561;37.974;23.708;2023-09-30T09:32:14;27.00;48.40
80250;DHT22;69561;37.974;23.708;2023-09-30T09:34:41;27.00;48.40
80250;DHT22;69561;37.974;23.708;2023-09-30T09:37:21;27.00;48.40
80250;DHT22;69561;37.974;23.708;2023-09-30T09:39:55;27.00;48.40
80250;DHT22;69561;37.974;23.708;2023-09-30T09:42:32;27.00;48.40
80250;DHT22;69561;37.974;23.708;2023-09-30T09:45:04;27.00;48.40
80250;DHT22;69561;37.974;23.708;2023-09-30T09:47:32;27.00;48.50
80250;DHT22;69561;37.974;23.708;2023-09-30T09:49:58;27.00;48.40
80250;DHT22;69561;37.974;23.708;2023-09-30T09:52:25;27.00;48.40
80250;DHT22;69561;37.974;23.708;2023-09-30T09:54:52;27.00;48.40
80250;DHT22;69561;37.974;23.708;2023-09-30T09:57:19;27.00;48.40
80250;DHT22;69561;37.974;23.708;2023-09-30T09:59:46;27.00;48.40
80250;DHT22;69561;37.974;23.708;2023-09-30T10:02:14;27.00;48.40
80250;DHT22;69561;37.974;23.708;2023-09-30T10:04:44;27.00;48.40
80250;DHT22;69561;37.974;23.708;2023-09-30T10:07:34;27.00;48.40
80250;DHT22;69561;37.974;23.708;2023-09-30T10:10:04;27.00;48.40
80250;DHT22;69561;37.974;23.708;2023-09-30T10:12:38;27.00;48.40
80250;DHT22;69561;37.974;23.708;2023-09-30T10:15:37;26.90;48.40
80250;DHT22;69561;37.974;23.708;2023-09-30T10:18:13;27.00;48.40
80250;DHT22;69561;37.974;23.708;2023-09-30T10:20:41;27.00;48.40
80250;DHT22;69561;37.974;23.708;2023-09-30T10:23:24;26.90;48.30
80250;DHT22;69561;37.974;23.708;2023-09-30T10:25:55;27.00;48.40
80250;DHT22;69561;37.974;23.708;2023-09-30T10:28:42;27.00;48.40
80250;DHT22;69561;37.974;23.708;2023-09-30T10:31:18;27.00;48.40
80250;DHT22;69561;37.974;23.708;2023-09-30T10:36:32;27.00;48.40
80250;DHT22;69561;37.974;23.708;2023-09-30T10:38:59;26.90;48.40
80250;DHT22;69561;37.974;23.708;2023-09-30T10:41:52;26.90;48.40
80250;DHT22;69561;37.974;23.708;2023-09-30T10:46:58;27.00;48.50
80250;DHT22;69561;37.974;23.708;2023-09-30T10:51:55;27.00;48.40
80250;DHT22;69561;37.974;23.708;2023-09-30T10:54:29;27.00;48.40
80250;DHT22;69561;37.974;23.708;2023-09-30T10:56:55;27.00;48.30
80250;DHT22;69561;37.974;23.708;2023-09-30T10:59:25;27.00;48.30
80250;DHT22;69561;37.974;23.708;2023-09-30T11:01:51;27.00;48.30
80250;DHT22;69561;37.974;23.708;2023-09-30T11:04:17;27.00;48.30
80250;DHT22;69561;37.974;23.708;2023-09-30T11:06:44;27.00;48.30
80250;DHT22;69561;37.974;23.708;2023-09-30T11:09:21;27.00;48.30
80250;DHT22;69561;37.974;23.708;2023-09-30T11:11:52;27.00;48.30
80250;DHT22;69561;37.974;23.708;2023-09-30T11:14:26;27.00;48.30
80250;DHT22;69561;37.974;23.708;2023-09-30T11:16:54;27.00;48.30
80250;DHT22;69561;37.974;23.708;2023-09-30T11:19:21;27.00;48.30
80250;DHT22;69561;37.974;23.708;2023-09-30T11:21:54;27.00;48.30
80250;DHT22;69561;37.974;23.708;2023-09-30T11:24:20;27.00;48.20
80250;DHT22;69561;37.974;23.708;2023-09-30T11:26:47;27.00;48.20
80250;DHT22;69561;37.974;23.708;2023-09-30T11:29:14;27.00;48.20
80250;DHT22;69561;37.974;23.708;2023-09-30T11:31:45;27.00;48.20
80250;DHT22;69561;37.974;23.708;2023-09-30T11:34:12;27.00;48.20
80250;DHT22;69561;37.974;23.708;2023-09-30T11:36:39;27.00;48.20
80250;DHT22;69561;37.974;23.708;2023-09-30T11:39:08;27.00;48.20
80250;DHT22;69561;37.974;23.708;2023-09-30T11:41:36;27.00;48.20
80250;DHT22;69561;37.974;23.708;2023-09-30T11:44:15;27.00;48.20
80250;DHT22;69561;37.974;23.708;2023-09-30T11:52:02;27.00;48.10
80250;DHT22;69561;37.974;23.708;2023-09-30T11:54:39;27.00;48.20
80250;DHT22;69561;37.974;23.708;2023-09-30T11:57:07;27.00;48.10
80250;DHT22;69561;37.974;23.708;2023-09-30T11:59:39;27.00;48.20
80250;DHT22;69561;37.974;23.708;2023-09-30T12:02:07;27.00;48.20
80250;DHT22;69561;37.974;23.708;2023-09-30T12:04:34;27.00;48.20
80250;DHT22;69561;37.974;23.708;2023-09-30T12:07:00;27.00;48.20
80250;DHT22;69561;37.974;23.708;2023-09-30T12:09:26;27.00;48.20
80250;DHT22;69561;37.974;23.708;2023-09-30T12:11:53;27.00;48.20
80250;DHT22;69561;37.974;23.708;2023-09-30T12:14:25;27.00;48.20
80250;DHT22;69561;37.974;23.708;2023-09-30T12:16:51;27.00;48.10
80250;DHT22;69561;37.974;23.708;2023-09-30T12:19:17;27.00;48.20
80250;DHT22;69561;37.974;23.708;2023-09-30T12:21:44;27.00;48.10
80250;DHT22;69561;37.974;23.708;2023-09-30T12:24:17;27.00;48.10
80250;DHT22;69561;37.974;23.708;2023-09-30T12:26:48;26.90;48.00
80250;DHT22;69561;37.974;23.708;2023-09-30T12:29:23;27.00;48.20
80250;DHT22;69561;37.974;23.708;2023-09-30T12:31:53;27.00;48.10
80250;DHT22;69561;37.974;23.708;2023-09-30T12:34:19;27.00;48.10
80250;DHT22;69561;37.974;23.708;2023-09-30T12:36:45;27.00;48.10
80250;DHT22;69561;37.974;23.708;2023-09-30T12:39:13;27.00;48.10
80250;DHT22;69561;37.974;23.708;2023-09-30T12:41:43;27.00;48.10
80250;DHT22;69561;37.974;23.708;2023-09-30T12:44:09;27.00;48.10
80250;DHT22;69561;37.974;23.708;2023-09-30T12:46:36;27.00;48.10
80250;DHT22;69561;37.974;23.708;2023-09-30T12:49:06;27.00;48.20
80250;DHT22;69561;37.974;23.708;2023-09-30T12:51:33;26.90;48.00
80250;DHT22;69561;37.974;23.708;2023-09-30T12:54:00;27.00;48.20
80250;DHT22;69561;37.974;23.708;2023-09-30T12:56:26;27.00;48.20
80250;DHT22;69561;37.974;23.708;2023-09-30T12:58:55;27.00;48.10
80250;DHT22;69561;37.974;23.708;2023-09-30T13:01:21;27.00;48.10
80250;DHT22;69561;37.974;23.708;2023-09-30T13:03:48;27.00;48.10
80250;DHT22;69561;37.974;23.708;2023-09-30T13:06:14;26.90;48.00
80250;DHT22;69561;37.974;23.708;2023-09-30T13:08:41;27.00;48.00
80250;DHT22;69561;37.974;23.708;2023-09-30T13:11:07;26.90;47.90
80250;DHT22;69561;37.974;23.708;2023-09-30T13:13:34;26.90;48.00
80250;DHT22;69561;37.974;23.708;2023-09-30T13:16:01;27.00;48.00
80250;DHT22;69561;37.974;23.708;2023-09-30T13:18:27;26.90;47.90
80250;DHT22;69561;37.974;23.708;2023-09-30T13:20:53;26.90;47.90
80250;DHT22;69561;37.974;23.708;2023-09-30T13:23:19;27.00;47.90
80250;DHT22;69561;37.974;23.708;2023-09-30T13:25:45;27.00;47.90
80250;DHT22;69561;37.974;23.708;2023-09-30T13:28:11;27.00;47.90
80250;DHT22;69561;37.974;23.708;2023-09-30T13:30:37;27.00;47.90
80250;DHT22;69561;37.974;23.708;2023-09-30T13:33:03;26.90;47.80
80250;DHT22;69561;37.974;23.708;2023-09-30T13:35:29;26.90;47.80
80250;DHT22;69561;37.974;23.708;2023-09-30T13:37:55;27.00;47.80
80250;DHT22;69561;37.974;23.708;2023-09-30T13:40:21;27.00;47.80
80250;DHT22;69561;37.974;23.708;2023-09-30T13:42:46;27.00;47.80
80250;DHT22;69561;37.974;23.708;2023-09-30T13:45:12;27.00;47.80
80250;DHT22;69561;37.974;23.708;2023-09-30T13:47:38;27.00;47.80
80250;DHT22;69561;37.974;23.708;2023-09-30T13:50:05;27.00;47.80
80250;DHT22;69561;37.974;23.708;2023-09-30T13:52:34;27.00;47.70
80250;DHT22;69561;37.974;23.708;2023-09-30T13:55:00;26.90;47.70
80250;DHT22;69561;37.974;23.708;2023-09-30T13:57:26;26.90;47.70
80250;DHT22;69561;37.974;23.708;2023-09-30T13:59:52;27.00;47.70
80250;DHT22;69561;37.974;23.708;2023-09-30T14:02:17;27.00;47.70
80250;DHT22;69561;37.974;23.708;2023-09-30T14:04:43;26.90;47.60
80250;DHT22;69561;37.974;23.708;2023-09-30T14:07:09;27.00;47.80
80250;DHT22;69561;37.974;23.708;2023-09-30T14:09:35;27.00;47.70
80250;DHT22;69561;37.974;23.708;2023-09-30T14:12:01;27.00;47.70
80250;DHT22;69561;37.974;23.708;2023-09-30T14:14:31;27.00;48.70
80250;DHT22;69561;37.974;23.708;2023-09-30T14:16:58;27.00;47.60
80250;DHT22;69561;37.974;23.708;2023-09-30T14:19:23;27.00;47.70
80250;DHT22;69561;37.974;23.708;2023-09-30T14:21:49;27.00;47.70
80250;DHT22;69561;37.974;23.708;2023-09-30T14:24:15;26.90;47.60
80250;DHT22;69561;37.974;23.708;2023-09-30T14:26:41;27.00;47.70
80250;DHT22;69561;37.974;23.708;2023-09-30T14:29:07;27.00;47.60
80250;DHT22;69561;37.974;23.708;2023-09-30T14:31:33;27.00;47.60
80250;DHT22;69561;37.974;23.708;2023-09-30T14:33:59;26.90;47.60
80250;DHT22;69561;37.974;23.708;2023-09-30T14:36:25;27.00;47.60
80250;DHT22;69561;37.974;23.708;2023-09-30T14:38:51;27.00;47.70
80250;DHT22;69561;37.974;23.708;2023-09-30T14:41:17;26.90;47.60
80250;DHT22;69561;37.974;23.708;2023-09-30T14:43:44;27.00;47.60
80250;DHT22;69561;37.974;23.708;2023-09-30T14:46:11;27.00;47.60
80250;DHT22;69561;37.974;23.708;2023-09-30T14:48:38;26.90;47.60
80250;DHT22;69561;37.974;23.708;2023-09-30T14:51:03;26.90;47.60
80250;DHT22;69561;37.974;23.708;2023-09-30T14:53:33;27.00;47.60
80250;DHT22;69561;37.974;23.708;2023-09-30T14:55:59;26.90;48.60
80250;DHT22;69561;37.974;23.708;2023-09-30T14:58:25;26.90;47.50
80250;DHT22;69561;37.974;23.708;2023-09-30T15:00:50;26.90;47.60
80250;DHT22;69561;37.974;23.708;2023-09-30T15:03:16;27.00;47.70
80250;DHT22;69561;37.974;23.708;2023-09-30T15:05:42;27.00;47.60
80250;DHT22;69561;37.974;23.708;2023-09-30T15:08:08;26.90;47.60
80250;DHT22;69561;37.974;23.708;2023-09-30T15:10:35;26.90;47.50
80250;DHT22;69561;37.974;23.708;2023-09-30T15:13:01;26.90;47.50
80250;DHT22;69561;37.974;23.708;2023-09-30T15:15:27;26.90;47.50
80250;DHT22;69561;37.974;23.708;2023-09-30T15:17:53;26.90;47.60
80250;DHT22;69561;37.974;23.708;2023-09-30T15:20:20;26.90;47.50
80250;DHT22;69561;37.974;23.708;2023-09-30T15:22:46;26.90;47.50
80250;DHT22;69561;37.974;23.708;2023-09-30T15:25:12;26.90;47.60
80250;DHT22;69561;37.974;23.708;2023-09-30T15:27:38;26.90;47.60
80250;DHT22;69561;37.974;23.708;2023-09-30T15:30:04;26.90;47.50